createdAt,value
2018-07-23T00:01:16.513Z,947.80
2018-07-23T00:03:42.817Z,947.73
2018-07-23T00:06:09.124Z,947.69
2018-07-23T00:08:35.435Z,947.74
2018-07-23T00:11:01.792Z,947.68
2018-07-23T00:13:28.108Z,947.73
2018-07-23T00:15:54.420Z,947.77
2018-07-23T00:18:20.735Z,947.72
2018-07-23T00:20:47.043Z,947.74
2018-07-23T00:23:13.350Z,947.68
2018-07-23T00:25:39.664Z,947.64
2018-07-23T00:28:05.990Z,947.63
2018-07-23T00:30:32.347Z,947.62
2018-07-23T00:32:58.668Z,947.59
2018-07-23T00:35:24.990Z,947.58
2018-07-23T00:37:51.301Z,947.65
2018-07-23T00:40:17.657Z,947.66
2018-07-23T00:42:43.976Z,947.66
2018-07-23T00:45:10.344Z,947.68
2018-07-23T00:47:36.652Z,947.69
2018-07-23T00:50:02.960Z,947.63
2018-07-23T00:52:29.278Z,947.66
2018-07-23T00:54:55.592Z,947.63
2018-07-23T00:57:21.916Z,947.66
2018-07-23T00:59:48.270Z,947.62
2018-07-23T01:02:14.583Z,947.58
2018-07-23T01:04:40.896Z,947.67
2018-07-23T01:07:07.207Z,947.67
2018-07-23T01:09:33.514Z,947.65
2018-07-23T01:11:59.828Z,947.67
2018-07-23T01:14:26.182Z,947.70
2018-07-23T01:16:52.488Z,947.68
2018-07-23T01:19:18.799Z,947.73
2018-07-23T01:21:45.109Z,947.72
2018-07-23T01:24:11.418Z,947.68
2018-07-23T01:26:37.722Z,947.61
2018-07-23T01:29:04.042Z,947.70
2018-07-23T01:31:30.356Z,947.69
2018-07-23T01:33:56.662Z,947.69
2018-07-23T01:36:22.994Z,947.71
2018-07-23T01:38:49.317Z,947.67
2018-07-23T01:41:15.618Z,947.73
2018-07-23T01:43:41.929Z,947.71
2018-07-23T01:46:08.241Z,947.71
2018-07-23T01:48:34.562Z,947.74
2018-07-23T01:51:00.904Z,947.73
2018-07-23T01:53:27.210Z,947.63
2018-07-23T01:55:53.520Z,947.75
2018-07-23T01:58:19.837Z,947.63
2018-07-23T02:00:46.155Z,947.61
2018-07-23T02:03:12.470Z,947.57
2018-07-23T02:05:38.780Z,947.53
2018-07-23T02:08:05.100Z,947.45
2018-07-23T02:10:31.409Z,947.46
2018-07-23T02:12:57.726Z,947.56
2018-07-23T02:15:24.042Z,947.58
2018-07-23T02:17:50.399Z,947.60
2018-07-23T02:20:16.667Z,947.65
2018-07-23T02:22:42.977Z,947.69
2018-07-23T02:25:09.284Z,947.68
2018-07-23T02:27:35.603Z,947.75
2018-07-23T02:30:01.934Z,947.79
2018-07-23T02:32:28.251Z,947.75
2018-07-23T02:34:54.611Z,947.72
2018-07-23T02:37:20.929Z,947.68
2018-07-23T02:39:47.245Z,947.68
2018-07-23T02:42:13.602Z,947.66
2018-07-23T02:44:39.923Z,947.72
2018-07-23T02:47:06.248Z,947.72
2018-07-23T02:49:32.569Z,947.70
2018-07-23T02:51:58.881Z,947.73
2018-07-23T02:54:25.202Z,947.70
2018-07-23T02:56:51.562Z,947.67
2018-07-23T02:59:17.874Z,947.71
2018-07-23T03:01:44.192Z,947.66
2018-07-23T03:04:10.501Z,947.56
2018-07-23T03:06:36.818Z,947.67
2018-07-23T03:09:03.133Z,947.66
2018-07-23T03:11:29.449Z,947.72
2018-07-23T03:13:55.762Z,947.78
2018-07-23T03:16:22.075Z,947.74
2018-07-23T03:18:48.382Z,947.70
2018-07-23T03:21:14.692Z,947.71
2018-07-23T03:23:40.995Z,947.65
2018-07-23T03:26:07.308Z,947.58
2018-07-23T03:28:33.619Z,947.51
2018-07-23T03:30:59.935Z,947.48
2018-07-23T03:33:26.249Z,947.47
2018-07-23T03:35:52.564Z,947.40
2018-07-23T03:38:18.881Z,947.35
2018-07-23T03:40:45.198Z,947.38
2018-07-23T03:43:11.507Z,947.34
2018-07-23T03:45:37.819Z,947.40
2018-07-23T03:48:04.137Z,947.36
2018-07-23T03:50:30.450Z,947.39
2018-07-23T03:52:56.771Z,947.46
2018-07-23T03:55:23.090Z,947.44
2018-07-23T03:57:49.409Z,947.59
2018-07-23T04:00:15.724Z,947.58
2018-07-23T04:02:42.034Z,947.52
2018-07-23T04:05:08.352Z,947.56
2018-07-23T04:07:34.668Z,947.63
2018-07-23T04:10:01.034Z,947.59
2018-07-23T04:12:27.299Z,947.62
2018-07-23T04:14:53.615Z,947.69
2018-07-23T04:17:19.931Z,947.72
2018-07-23T04:19:46.257Z,947.65
2018-07-23T04:22:12.569Z,947.65
2018-07-23T04:24:38.877Z,947.68
2018-07-23T04:27:05.185Z,947.64
2018-07-23T04:29:31.502Z,947.62
2018-07-23T04:31:57.814Z,947.58
2018-07-23T04:34:24.132Z,947.57
2018-07-23T04:36:50.481Z,947.55
2018-07-23T04:39:16.792Z,947.59
2018-07-23T04:41:43.096Z,947.47
2018-07-23T04:44:09.413Z,947.45
2018-07-23T04:46:35.720Z,947.53
2018-07-23T04:49:02.038Z,947.46
2018-07-23T04:51:28.347Z,947.46
2018-07-23T04:53:54.702Z,947.42
2018-07-23T04:56:21.011Z,947.38
2018-07-23T04:58:47.363Z,947.32
2018-07-23T05:01:13.687Z,947.31
2018-07-23T05:03:40.011Z,947.20
2018-07-23T05:06:06.325Z,947.20
2018-07-23T05:08:32.647Z,947.14
2018-07-23T05:10:58.988Z,947.15
2018-07-23T05:13:25.298Z,947.18
2018-07-23T05:15:51.628Z,947.14
2018-07-23T05:18:17.921Z,947.11
2018-07-23T05:20:44.244Z,947.23
2018-07-23T05:23:10.561Z,947.16
2018-07-23T05:25:36.873Z,947.11
2018-07-23T05:28:03.195Z,947.13
2018-07-23T05:30:29.504Z,947.22
2018-07-23T05:32:55.826Z,947.19
2018-07-23T05:35:22.147Z,947.27
2018-07-23T05:37:48.466Z,947.33
2018-07-23T05:40:14.789Z,947.28
2018-07-23T05:42:41.109Z,947.25
2018-07-23T05:45:07.423Z,947.24
2018-07-23T05:47:33.738Z,947.16
2018-07-23T05:50:00.049Z,947.15
2018-07-23T05:52:26.361Z,947.22
2018-07-23T05:54:52.682Z,947.11
2018-07-23T05:57:18.991Z,947.14
2018-07-23T05:59:45.298Z,947.07
2018-07-23T06:02:11.608Z,947.11
2018-07-23T06:04:37.960Z,947.12
2018-07-23T06:07:04.352Z,947.20
2018-07-23T06:09:30.581Z,947.19
2018-07-23T06:11:56.896Z,947.08
2018-07-23T06:14:23.216Z,947.11
2018-07-23T06:16:49.529Z,947.20
2018-07-23T06:19:15.844Z,947.12
2018-07-23T06:21:42.158Z,947.14
2018-07-23T06:24:08.476Z,947.08
2018-07-23T06:26:34.820Z,947.03
2018-07-23T06:29:01.133Z,947.08
2018-07-23T06:31:27.456Z,947.09
2018-07-23T06:33:53.830Z,947.01
2018-07-23T06:36:20.093Z,947.07
2018-07-23T06:38:46.427Z,947.05
2018-07-23T06:41:12.743Z,947.02
2018-07-23T06:43:39.052Z,946.98
2018-07-23T06:46:05.364Z,946.86
2018-07-23T06:48:31.674Z,946.93
2018-07-23T06:50:57.990Z,946.90
2018-07-23T06:53:24.312Z,946.88
2018-07-23T06:55:50.628Z,946.91
2018-07-23T06:58:16.936Z,946.87
2018-07-23T07:00:43.304Z,946.94
2018-07-23T07:03:09.613Z,946.83
2018-07-23T07:05:35.869Z,946.84
2018-07-23T07:08:02.221Z,946.74
2018-07-23T07:10:28.533Z,946.70
2018-07-23T07:12:54.851Z,946.79
2018-07-23T07:15:21.235Z,946.84
2018-07-23T07:17:47.543Z,946.86
2018-07-23T07:20:13.852Z,946.82
2018-07-23T07:22:40.170Z,946.90
2018-07-23T07:25:06.487Z,946.87
2018-07-23T07:27:32.869Z,946.79
2018-07-23T07:29:59.203Z,946.87
2018-07-23T07:32:25.522Z,946.78
2018-07-23T07:34:51.884Z,946.71
2018-07-23T07:37:18.203Z,946.65
2018-07-23T07:39:44.531Z,946.65
2018-07-23T07:42:10.823Z,946.56
2018-07-23T07:44:37.143Z,946.56
2018-07-23T07:47:03.462Z,946.59
2018-07-23T07:49:29.779Z,946.53
2018-07-23T07:51:56.101Z,946.53
2018-07-23T07:54:22.488Z,946.51
2018-07-23T07:56:48.846Z,946.49
2018-07-23T07:59:15.198Z,946.43
2018-07-23T08:01:41.501Z,946.43
2018-07-23T08:04:07.812Z,946.43
2018-07-23T08:06:34.177Z,946.44
2018-07-23T08:09:00.497Z,946.38
2018-07-23T08:11:26.852Z,946.37
2018-07-23T08:13:53.169Z,946.28
2018-07-23T08:16:19.491Z,946.35
2018-07-23T08:18:45.800Z,946.37
2018-07-23T08:21:12.112Z,946.22
2018-07-23T08:23:38.420Z,946.23
2018-07-23T08:26:04.775Z,946.24
2018-07-23T08:28:31.095Z,946.16
2018-07-23T08:30:57.399Z,946.21
2018-07-23T08:33:23.713Z,946.26
2018-07-23T08:35:50.032Z,946.18
2018-07-23T08:38:16.394Z,946.23
2018-07-23T08:40:42.704Z,946.19
2018-07-23T08:43:09.060Z,946.10
2018-07-23T08:45:35.336Z,946.11
2018-07-23T08:48:01.643Z,946.12
2018-07-23T08:50:27.971Z,946.13
2018-07-23T08:52:54.282Z,946.08
2018-07-23T08:55:20.592Z,946.00
2018-07-23T08:57:46.905Z,946.00
2018-07-23T09:00:13.263Z,946.00
2018-07-23T09:02:39.576Z,945.89
2018-07-23T09:05:05.888Z,945.91
2018-07-23T09:07:32.195Z,945.86
2018-07-23T09:09:58.515Z,945.87
2018-07-23T09:12:24.828Z,945.81
2018-07-23T09:14:51.206Z,945.73
2018-07-23T09:17:17.582Z,945.79
2018-07-23T09:19:43.891Z,945.67
2018-07-23T09:22:10.257Z,945.60
2018-07-23T09:24:36.529Z,945.53
2018-07-23T09:27:02.845Z,945.49
2018-07-23T09:29:29.161Z,945.45
2018-07-23T09:31:55.476Z,945.42
2018-07-23T09:34:21.793Z,945.41
2018-07-23T09:36:48.106Z,945.40
2018-07-23T09:39:14.426Z,945.32
2018-07-23T09:41:40.736Z,945.33
2018-07-23T09:44:07.054Z,945.29
2018-07-23T09:46:33.368Z,945.19
2018-07-23T09:48:59.726Z,945.15
2018-07-23T09:51:26.082Z,945.14
2018-07-23T09:53:52.364Z,945.22
2018-07-23T09:56:18.722Z,945.20
2018-07-23T09:58:45.031Z,945.18
2018-07-23T10:01:11.345Z,945.19
2018-07-23T10:03:37.721Z,945.22
2018-07-23T10:06:03.976Z,945.28
2018-07-23T10:08:30.293Z,945.25
2018-07-23T10:10:56.654Z,945.15
2018-07-23T10:13:22.992Z,945.20
2018-07-23T10:15:49.306Z,945.19
2018-07-23T10:18:15.626Z,945.19
2018-07-23T10:20:41.935Z,945.07
2018-07-23T10:23:08.249Z,945.04
2018-07-23T10:25:34.560Z,945.01
2018-07-23T10:28:00.876Z,945.08
2018-07-23T10:30:27.192Z,945.05
2018-07-23T10:32:53.545Z,945.02
2018-07-23T10:35:19.856Z,945.05
2018-07-23T10:37:46.162Z,945.04
2018-07-23T10:40:12.472Z,944.93
2018-07-23T10:42:38.781Z,945.05
2018-07-23T10:45:05.103Z,945.02
2018-07-23T10:47:31.412Z,945.13
2018-07-23T10:49:57.720Z,945.00
2018-07-23T10:52:24.033Z,945.06
2018-07-23T10:54:50.356Z,945.09
2018-07-23T10:57:16.722Z,945.05
2018-07-23T10:59:42.980Z,945.05
2018-07-23T11:02:09.296Z,945.00
2018-07-23T11:04:35.608Z,944.90
2018-07-23T11:07:01.919Z,944.89
2018-07-23T11:09:28.226Z,944.85
2018-07-23T11:11:54.533Z,944.83
2018-07-23T11:14:20.847Z,944.62
2018-07-23T11:16:47.156Z,944.47
2018-07-23T11:19:13.513Z,944.40
2018-07-23T11:21:39.777Z,944.45
2018-07-23T11:24:06.129Z,944.31
2018-07-23T11:26:32.407Z,944.44
2018-07-23T11:28:58.715Z,944.32
2018-07-23T11:31:25.026Z,944.30
2018-07-23T11:33:51.337Z,944.25
2018-07-23T11:36:17.650Z,944.21
2018-07-23T11:38:43.968Z,944.22
2018-07-23T11:41:10.276Z,944.19
2018-07-23T11:43:36.587Z,944.07
2018-07-23T11:46:02.949Z,944.07
2018-07-23T11:48:29.251Z,944.17
2018-07-23T11:50:55.566Z,944.16
2018-07-23T11:53:21.892Z,944.18
2018-07-23T11:55:48.195Z,944.18
2018-07-23T11:58:14.543Z,944.11
2018-07-23T12:00:40.860Z,944.08
2018-07-23T12:03:07.168Z,944.21
2018-07-23T12:05:33.475Z,944.25
2018-07-23T12:07:59.803Z,944.17
2018-07-23T12:10:26.115Z,944.28
2018-07-23T12:12:52.428Z,944.26
2018-07-23T12:15:18.735Z,944.28
2018-07-23T12:17:45.059Z,944.32
2018-07-23T12:20:14.199Z,944.36
2018-07-23T12:22:40.511Z,944.31
2018-07-23T12:25:06.825Z,944.40
2018-07-23T12:27:33.134Z,944.49
2018-07-23T12:29:59.444Z,944.50
2018-07-23T12:32:25.809Z,944.52
2018-07-23T12:34:52.067Z,944.49
2018-07-23T12:37:18.420Z,944.43
2018-07-23T12:39:44.827Z,944.45
2018-07-23T12:42:11.102Z,944.40
2018-07-23T12:44:37.416Z,944.33
2018-07-23T12:47:03.736Z,944.20
2018-07-23T12:49:30.049Z,944.09
2018-07-23T12:51:56.356Z,944.08
2018-07-23T12:54:22.685Z,944.03
2018-07-23T12:56:48.997Z,944.09
2018-07-23T12:59:15.343Z,944.13
2018-07-23T13:01:41.654Z,944.15
2018-07-23T13:04:07.973Z,944.14
2018-07-23T13:06:34.288Z,944.16
2018-07-23T13:09:00.602Z,944.15
2018-07-23T13:11:26.914Z,944.06
2018-07-23T13:13:53.253Z,943.98
2018-07-23T13:16:19.532Z,943.95
2018-07-23T13:18:45.839Z,944.06
2018-07-23T13:21:12.162Z,944.12
2018-07-23T13:23:38.472Z,944.08
2018-07-23T13:26:04.801Z,944.10
2018-07-23T13:28:31.121Z,944.18
2018-07-23T13:30:57.438Z,944.13
2018-07-23T13:33:23.768Z,944.17
2018-07-23T13:35:50.076Z,944.21
2018-07-23T13:38:16.455Z,944.15
2018-07-23T13:40:42.748Z,944.27
2018-07-23T13:43:09.055Z,944.28
2018-07-23T13:45:35.374Z,944.28
2018-07-23T13:48:01.686Z,944.23
2018-07-23T13:50:27.996Z,944.28
2018-07-23T13:52:54.314Z,944.30
2018-07-23T13:55:20.640Z,944.32
2018-07-23T13:57:46.953Z,944.30
2018-07-23T14:00:13.310Z,944.34
2018-07-23T14:02:39.633Z,944.52
2018-07-23T14:05:05.949Z,944.54
2018-07-23T14:07:32.263Z,944.62
2018-07-23T14:09:58.578Z,944.83
2018-07-23T14:12:24.895Z,945.16
2018-07-23T14:14:51.207Z,945.27
2018-07-23T14:17:17.517Z,945.44
2018-07-23T14:19:43.835Z,945.45
2018-07-23T14:22:10.146Z,945.32
2018-07-23T14:24:36.458Z,945.30
2018-07-23T14:27:02.772Z,945.33
2018-07-23T14:29:29.087Z,945.31
2018-07-23T14:31:55.404Z,945.29
2018-07-23T14:34:21.723Z,945.30
2018-07-23T14:36:48.056Z,945.28
2018-07-23T14:39:14.374Z,945.28
2018-07-23T14:41:40.686Z,945.13
2018-07-23T14:44:06.998Z,945.08
2018-07-23T14:46:33.323Z,944.99
2018-07-23T14:48:59.627Z,944.97
2018-07-23T14:51:25.946Z,944.89
2018-07-23T14:53:52.265Z,944.79
2018-07-23T14:56:18.583Z,944.81
2018-07-23T14:58:44.891Z,944.71
2018-07-23T15:01:11.204Z,944.71
2018-07-23T15:03:37.520Z,944.63
2018-07-23T15:06:03.832Z,944.60
2018-07-23T15:08:30.167Z,944.60
2018-07-23T15:10:56.518Z,944.63
2018-07-23T15:13:22.828Z,944.58
2018-07-23T15:15:49.179Z,944.62
2018-07-23T15:18:15.505Z,944.76
2018-07-23T15:20:41.858Z,944.87
2018-07-23T15:23:08.225Z,944.92
2018-07-23T15:25:34.537Z,944.85
2018-07-23T15:28:00.863Z,944.77
2018-07-23T15:30:27.236Z,944.66
2018-07-23T15:32:53.627Z,944.69
2018-07-23T15:35:19.895Z,944.78
2018-07-23T15:37:46.208Z,944.73
2018-07-23T15:40:12.520Z,944.76
2018-07-23T15:42:38.896Z,944.76
2018-07-23T15:45:05.294Z,944.74
2018-07-23T15:47:31.523Z,944.66
2018-07-23T15:49:57.845Z,944.65
2018-07-23T15:52:24.172Z,944.65
2018-07-23T15:54:50.493Z,944.65
2018-07-23T15:57:16.810Z,944.67
2018-07-23T15:59:43.142Z,944.56
2018-07-23T16:02:09.455Z,944.61
2018-07-23T16:04:35.755Z,944.54
2018-07-23T16:07:02.063Z,944.60
2018-07-23T16:09:28.375Z,944.50
2018-07-23T16:11:55.082Z,944.53
2018-07-23T16:14:21.394Z,944.56
2018-07-23T16:16:47.706Z,944.63
2018-07-23T16:19:14.025Z,944.68
2018-07-23T16:21:40.383Z,944.74
2018-07-23T16:24:06.696Z,944.73
2018-07-23T16:26:33.012Z,944.79
2018-07-23T16:28:59.327Z,944.75
2018-07-23T16:31:25.683Z,944.78
2018-07-23T16:33:52.002Z,944.73
2018-07-23T16:36:18.353Z,944.77
2018-07-23T16:38:44.731Z,944.69
2018-07-23T16:41:11.039Z,944.66
2018-07-23T16:43:37.396Z,944.68
2018-07-23T16:46:03.704Z,944.74
2018-07-23T16:48:30.055Z,944.89
2018-07-23T16:50:56.402Z,944.88
2018-07-23T16:53:22.656Z,944.91
2018-07-23T16:55:48.981Z,944.93
2018-07-23T16:58:15.314Z,944.97
2018-07-23T17:00:41.623Z,944.96
2018-07-23T17:03:07.963Z,944.87
2018-07-23T17:05:34.317Z,944.91
2018-07-23T17:08:00.586Z,944.91
2018-07-23T17:10:26.895Z,944.84
2018-07-23T17:12:53.225Z,944.86
2018-07-23T17:15:19.543Z,944.79
2018-07-23T17:17:45.918Z,944.91
2018-07-23T17:20:12.169Z,945.00
2018-07-23T17:22:38.490Z,945.06
2018-07-23T17:25:04.802Z,945.06
2018-07-23T17:27:31.107Z,945.04
2018-07-23T17:29:57.419Z,945.00
2018-07-23T17:32:23.731Z,945.06
2018-07-23T17:34:50.055Z,944.97
2018-07-23T17:37:16.380Z,945.01
2018-07-23T17:39:42.730Z,945.04
2018-07-23T17:42:09.079Z,945.18
2018-07-23T17:44:35.433Z,945.36
2018-07-23T17:47:01.784Z,945.25
2018-07-23T17:49:28.095Z,945.18
2018-07-23T17:51:54.422Z,945.22
2018-07-23T17:54:20.744Z,945.23
2018-07-23T17:56:47.052Z,945.22
2018-07-23T17:59:13.367Z,945.28
2018-07-23T18:01:39.683Z,945.37
2018-07-23T18:04:05.997Z,945.45
2018-07-23T18:06:32.400Z,945.50
2018-07-23T18:08:58.677Z,945.47
2018-07-23T18:11:25.087Z,945.56
2018-07-23T18:13:51.313Z,945.59
2018-07-23T18:16:17.619Z,945.63
2018-07-23T18:18:43.950Z,945.63
2018-07-23T18:21:10.273Z,945.70
2018-07-23T18:23:36.627Z,945.72
2018-07-23T18:26:02.920Z,945.86
2018-07-23T18:28:29.296Z,945.80
2018-07-23T18:30:55.539Z,945.85
2018-07-23T18:33:21.871Z,945.85
2018-07-23T18:35:48.200Z,945.95
2018-07-23T18:38:14.620Z,945.95
2018-07-23T18:40:40.869Z,945.99
2018-07-23T18:43:07.193Z,946.04
2018-07-23T18:45:33.499Z,946.12
2018-07-23T18:47:59.811Z,946.12
2018-07-23T18:50:26.138Z,946.07
2018-07-23T18:52:52.466Z,946.09
2018-07-23T18:55:18.783Z,946.07
2018-07-23T18:57:45.107Z,945.94
2018-07-23T19:00:11.456Z,945.94
2018-07-23T19:02:37.827Z,945.91
2018-07-23T19:05:04.150Z,945.95
2018-07-23T19:07:30.494Z,945.96
2018-07-23T19:09:56.819Z,945.99
2018-07-23T19:12:23.124Z,946.00
2018-07-23T19:14:49.455Z,945.95
2018-07-23T19:17:15.787Z,945.99
2018-07-23T19:19:43.692Z,946.00
2018-07-23T19:22:08.407Z,945.97
2018-07-23T19:24:34.734Z,946.02
2018-07-23T19:27:01.092Z,945.99
2018-07-23T19:29:27.405Z,946.03
2018-07-23T19:31:53.724Z,946.03
2018-07-23T19:34:20.063Z,945.99
2018-07-23T19:36:46.381Z,946.05
2018-07-23T19:39:12.717Z,946.09
2018-07-23T19:41:39.082Z,946.08
2018-07-23T19:44:05.403Z,946.04
2018-07-23T19:46:31.722Z,946.02
2018-07-23T19:48:58.025Z,946.10
2018-07-23T19:51:24.399Z,946.01
2018-07-23T19:53:50.738Z,946.07
2018-07-23T19:56:17.066Z,946.08
2018-07-23T19:58:43.402Z,946.09
2018-07-23T20:01:09.709Z,946.10
2018-07-23T20:03:36.021Z,946.11
2018-07-23T20:06:02.351Z,946.00
2018-07-23T20:08:28.668Z,946.01
2018-07-23T20:10:54.982Z,945.92
2018-07-23T20:13:21.311Z,945.86
2018-07-23T20:15:47.653Z,945.86
2018-07-23T20:18:13.969Z,945.80
2018-07-23T20:20:40.302Z,945.80
2018-07-23T20:23:06.632Z,945.70
2018-07-23T20:25:32.946Z,945.67
2018-07-23T20:27:59.274Z,945.67
2018-07-23T20:30:25.603Z,945.69
2018-07-23T20:32:51.959Z,945.65
2018-07-23T20:35:18.317Z,945.59
2018-07-23T20:37:44.634Z,945.59
2018-07-23T20:40:11.024Z,945.57
2018-07-23T20:42:37.273Z,945.55
2018-07-23T20:45:03.640Z,945.58
2018-07-23T20:47:29.952Z,945.58
2018-07-23T20:49:56.282Z,945.59
2018-07-23T20:52:22.593Z,945.65
2018-07-23T20:54:48.960Z,945.65
2018-07-23T20:57:15.281Z,945.61
2018-07-23T20:59:41.603Z,945.57
2018-07-23T21:02:07.916Z,945.60
2018-07-23T21:04:34.221Z,945.55
2018-07-23T21:07:00.539Z,945.50
2018-07-23T21:09:26.853Z,945.54
2018-07-23T21:11:53.169Z,945.52
2018-07-23T21:14:19.502Z,945.55
2018-07-23T21:16:45.839Z,945.61
2018-07-23T21:19:12.158Z,945.60
2018-07-23T21:21:38.471Z,945.61
2018-07-23T21:24:04.791Z,945.65
2018-07-23T21:26:31.107Z,945.67
2018-07-23T21:28:57.463Z,945.63
2018-07-23T21:31:23.779Z,945.61
2018-07-23T21:33:50.090Z,945.59
2018-07-23T21:36:16.417Z,945.58
2018-07-23T21:38:42.735Z,945.62
2018-07-23T21:41:09.059Z,945.56
2018-07-23T21:43:35.373Z,945.51
2018-07-23T21:46:01.681Z,945.53
2018-07-23T21:48:28.026Z,945.48
2018-07-23T21:50:54.308Z,945.47
2018-07-23T21:53:20.661Z,945.39
2018-07-23T21:55:46.971Z,945.43
2018-07-23T21:58:13.321Z,945.47
2018-07-23T22:00:39.699Z,945.49
2018-07-23T22:03:05.953Z,945.55
2018-07-23T22:05:32.309Z,945.48
2018-07-23T22:07:58.631Z,945.58
2018-07-23T22:10:24.948Z,945.50
2018-07-23T22:12:51.276Z,945.48
2018-07-23T22:15:17.588Z,945.46
2018-07-23T22:17:43.904Z,945.48
2018-07-23T22:20:10.260Z,945.54
2018-07-23T22:22:36.572Z,945.54
2018-07-23T22:25:02.881Z,945.53
2018-07-23T22:27:29.232Z,945.52
2018-07-23T22:29:55.543Z,945.54
2018-07-23T22:32:21.893Z,945.57
2018-07-23T22:34:48.210Z,945.54
2018-07-23T22:37:14.523Z,945.48
2018-07-23T22:39:40.833Z,945.47
2018-07-23T22:42:07.192Z,945.48
2018-07-23T22:44:33.461Z,945.48
2018-07-23T22:46:59.773Z,945.51
2018-07-23T22:49:26.086Z,945.47
2018-07-23T22:51:52.399Z,945.38
2018-07-23T22:54:18.712Z,945.34
2018-07-23T22:56:45.022Z,945.29
2018-07-23T22:59:11.352Z,945.20
2018-07-23T23:01:37.669Z,945.14
2018-07-23T23:04:03.978Z,945.21
2018-07-23T23:06:30.298Z,945.18
2018-07-23T23:08:56.653Z,945.31
2018-07-23T23:11:22.966Z,945.19
2018-07-23T23:13:49.279Z,945.26
2018-07-23T23:16:15.594Z,945.32
2018-07-23T23:18:41.917Z,945.33
2018-07-23T23:21:08.282Z,945.29
2018-07-23T23:23:34.599Z,945.25
2018-07-23T23:26:00.916Z,945.28
2018-07-23T23:28:27.235Z,945.28
2018-07-23T23:30:53.551Z,945.19
2018-07-23T23:33:19.872Z,945.22
2018-07-23T23:35:46.184Z,945.20
2018-07-23T23:38:12.500Z,945.14
2018-07-23T23:40:38.822Z,945.08
2018-07-23T23:43:05.131Z,945.11
2018-07-23T23:45:31.436Z,945.13
2018-07-23T23:47:57.752Z,945.19
2018-07-23T23:50:24.060Z,945.20
2018-07-23T23:52:50.367Z,945.19
2018-07-23T23:55:16.679Z,945.17
2018-07-23T23:57:42.986Z,945.11
